KCMX/CMX METAR and TAF weather

Enter ICAO airport designator
Station Type Date Time Source
KCMX METAR 2020/10/29 16:53 UTC NOAA

KCMX 291653Z AUTO 02006KT 10SM OVC025 M01/M08 A3012 RMK AO2 SLP214 T10111078


Station Type Date Time Source
KCMX Decoded METAR 2020/10/29 16:53 UTC NOAA

HANCOCK HOUGHTON CTY. MEMO, MI, United States (KCMX) 47-10N 088-29W 326M
Oct 29, 2020 - 12:53 PM EDT / 2020.10.29 1653 UTC
Wind: from the NNE (020 degrees) at 7 MPH (6 KT):0
Visibility: 10 mile(s):0
Sky conditions: overcast
Temperature: 30.0 F (-1.1 C)
Windchill: 23 F (-5 C):1
Dew Point: 18.0 F (-7.8 C)
Relative Humidity: 60%
Pressure (altimeter): 30.12 in. Hg (1019 hPa)
ob: KCMX 291653Z AUTO 02006KT 10SM OVC025 M01/M08 A3012 RMK AO2 SLP214 T10111078
cycle: 17

Station Type Date Time Source
KCMX TAF 2020/10/29 12:27 UTC NOAA

TAF KCMX 291124Z 2912/3012 03007KT P6SM BKN035
FM300600 VRB03KT P6SM BKN070

Example: see airport list